SBOSBO KEF / BIKF
Speedbird OnlineSpeedbird Online KEF / BIKF

Keflavik International Airport
23:53 -4°C

Location Keflavik, Iceland
Latitude: 63.985000610352
Longitude: -22.605600357056
Web Airport Website | Wikipedia
Altitude 52 Meter / 171 Feet
Distance 1,915 KM / 1,190 Miles
from London.
Time Zone UTC 0 hours (Atlantic/Reykjavik)
Codes IATA: KEF
ICAO: BIKF
Currency £1 equals ISK 170.99
Runways
RunwayLength (m)Surface
013054Asphalt
103065Asphalt
193054Asphalt
283065Asphalt
Radio
TypeDescriptionFrequency
A/GAIR GND131.9
APPAPP119.3
ATISATIS128.3
DEPDEP119.3
GNDGND121.9
OPSBASE OPS129
PMSVPMSV METRO125
TWRTWR118.3
Live ATC
METAR BIKF 081430Z 24029KT 0700 R28///// -SHSN BLSN BKN020TCU OVC033 M04/M06 Q0980
TAF TAF BIKF 081351Z 0815/0915 28025G35KT 5000 -SHSN DRSN FEW010CB BKN015 TX00/0915Z TNM05/0908Z TEMPO 0815/0903 28033G48KT 0200 SHSN BLSN BKN003CB BECMG 0903/0905 32022KT BECMG 0905/0907 31012KT 9999 NSW SCT016 BKN026 BECMG 0908/0910 25012KT
Weather As Of 08 Feb 2023 23:53
Description Light snow
Wind 50 km/h from West (290°)
Cloud Cover 40%
Precipitation Rain: none, Snow: none
Sunrise 09:49
Sunset 17:40
Lounges Icelandair Saga Lounge , Top floor between gates A and C
Rotations During the last 90 days there were
85 flights from LHR
84 flights to LHR



Support Speedbird Online

© 2017-2023 Speedbird Online